Time;durP1;ratioP1;P1;durP2;ratioP2;P2;SDS_P1;SDS_P2;PMS_P1;PMS_P2;Temp;Humidity;BMP_temperature;BMP_pressure;BME280_temperature;BME280_humidity;BME280_pressure;Samples;Min_cycle;Max_cycle;Signal;HPM_P1;HPM_P2
2023/05/06 00:01:02;;;;;;;;;;;14.10;62.90;;;;;;5037556;28;81173;-39
2023/05/06 00:03:28;;;;;;;;;;;14.10;63.00;;;;;;5035246;27;82230;-37
2023/05/06 00:05:53;;;;;;;;;;;14.10;63.00;;;;;;5037846;28;83547;-38
2023/05/06 00:08:19;;;;;;;;;;;14.10;63.00;;;;;;5032584;28;83243;-37
2023/05/06 00:10:45;;;;;;;;;;;14.10;63.00;;;;;;5037358;28;83260;-38
2023/05/06 00:13:10;;;;;;;;;;;14.10;62.90;;;;;;5037968;28;82961;-38
2023/05/06 00:15:36;;;;;;;;;;;14.10;63.00;;;;;;5036082;27;82332;-39
2023/05/06 00:18:02;;;;;;;;;;;14.00;63.00;;;;;;5036508;28;84249;-39
2023/05/06 00:20:27;;;;;;;;;;;14.10;63.10;;;;;;5034800;28;82143;-39
2023/05/06 00:22:53;;;;;;;;;;;14.00;63.10;;;;;;5037688;28;81912;-39
2023/05/06 00:25:19;;;;;;;;;;;14.00;63.10;;;;;;5034754;28;82374;-40
2023/05/06 00:27:44;;;;;;;;;;;14.00;63.10;;;;;;5036417;27;81990;-37
2023/05/06 00:30:10;;;;;;;;;;;14.00;63.10;;;;;;5035729;28;83732;-37
2023/05/06 00:32:36;;;;;;;;;;;14.00;63.20;;;;;;5034156;28;85298;-39
2023/05/06 00:35:02;;;;;;;;;;;14.00;63.20;;;;;;5040279;28;81963;-39
2023/05/06 00:37:28;;;;;;;;;;;14.00;63.20;;;;;;5033883;28;84895;-39
2023/05/06 00:39:53;;;;;;;;;;;14.00;63.30;;;;;;5037348;28;81918;-38
2023/05/06 00:42:22;;;;;;;;;;;14.00;63.30;;;;;;5035134;28;81930;-39
2023/05/06 00:44:47;;;;;;;;;;;13.90;63.20;;;;;;5035200;28;84486;-39
2023/05/06 00:47:13;;;;;;;;;;;13.90;63.30;;;;;;5036772;28;82031;-38
2023/05/06 00:49:39;;;;;;;;;;;13.90;63.30;;;;;;5034202;28;82841;-39
2023/05/06 00:52:05;;;;;;;;;;;13.90;64.00;;;;;;5036941;28;84383;-39
2023/05/06 00:54:30;;;;;;;;;;;13.90;63.30;;;;;;5034737;28;82100;-39
2023/05/06 00:56:56;;;;;;;;;;;13.90;63.30;;;;;;5038168;27;83498;-38
2023/05/06 00:59:22;;;;;;;;;;;13.80;63.30;;;;;;5035796;28;82063;-37
2023/05/06 01:01:48;;;;;;;;;;;13.80;63.30;;;;;;5034800;27;82456;-38
2023/05/06 01:04:14;;;;;;;;;;;13.90;63.40;;;;;;5036531;28;83327;-38
2023/05/06 01:06:58;;;;;;;;;;;13.90;63.30;;;;;;5037195;28;82121;-38
2023/05/06 01:09:23;;;;;;;;;;;13.80;63.40;;;;;;5037147;28;82427;-38
2023/05/06 01:11:54;;;;;;;;;;;13.80;63.40;;;;;;5037076;28;82714;-37
2023/05/06 01:14:35;;;;;;;;;;;13.80;63.40;;;;;;5035285;28;81252;-39
2023/05/06 01:17:02;;;;;;;;;;;13.80;63.50;;;;;;5037221;28;81915;-39
2023/05/06 01:19:34;;;;;;;;;;;13.80;63.50;;;;;;5037094;28;83390;-36
2023/05/06 01:22:00;;;;;;;;;;;13.70;63.40;;;;;;5034211;27;82957;-37
2023/05/06 01:24:38;;;;;;;;;;;13.80;63.50;;;;;;5035808;27;83059;-38
2023/05/06 01:27:04;;;;;;;;;;;13.70;63.40;;;;;;5034865;28;82031;-39
2023/05/06 01:29:30;;;;;;;;;;;13.70;63.50;;;;;;5038328;28;82414;-39
2023/05/06 01:31:58;;;;;;;;;;;13.70;63.50;;;;;;5039906;28;84048;-38
2023/05/06 01:34:23;;;;;;;;;;;13.70;63.50;;;;;;5037006;28;81965;-37
2023/05/06 01:37:00;;;;;;;;;;;13.70;63.50;;;;;;5040287;28;82467;-39
2023/05/06 01:39:28;;;;;;;;;;;13.60;63.50;;;;;;5042800;28;82394;-39
2023/05/06 01:41:56;;;;;;;;;;;13.70;63.50;;;;;;5037028;27;81836;-38
2023/05/06 01:44:22;;;;;;;;;;;13.70;63.50;;;;;;5039594;28;83486;-37
2023/05/06 01:46:48;;;;;;;;;;;13.60;64.00;;;;;;5037569;28;83722;-37
2023/05/06 01:49:15;;;;;;;;;;;13.60;63.40;;;;;;5038255;27;83366;-37
2023/05/06 01:51:50;;;;;;;;;;;13.60;63.50;;;;;;5039501;28;82876;-39
2023/05/06 01:54:16;;;;;;;;;;;13.60;63.40;;;;;;5034059;28;81829;-38
2023/05/06 01:56:41;;;;;;;;;;;13.60;63.30;;;;;;5039236;27;82578;-37
2023/05/06 01:59:07;;;;;;;;;;;13.60;63.30;;;;;;5038364;28;84204;-37
2023/05/06 02:01:33;;;;;;;;;;;13.60;63.30;;;;;;5040404;28;81920;-38
2023/05/06 02:03:58;;;;;;;;;;;13.60;64.00;;;;;;5039863;28;82206;-37
2023/05/06 02:06:23;;;;;;;;;;;13.60;63.40;;;;;;5036455;28;82045;-38
2023/05/06 02:08:49;;;;;;;;;;;13.50;63.40;;;;;;5039830;28;82485;-39
2023/05/06 02:11:15;;;;;;;;;;;13.60;63.90;;;;;;5036474;28;85737;-38
2023/05/06 02:13:40;;;;;;;;;;;13.60;63.30;;;;;;5038330;28;82153;-38
2023/05/06 02:16:06;;;;;;;;;;;13.50;63.40;;;;;;5038820;28;82453;-37
2023/05/06 02:18:31;;;;;;;;;;;13.60;63.40;;;;;;5036944;28;82970;-39
2023/05/06 02:20:57;;;;;;;;;;;13.50;63.30;;;;;;5040031;28;82128;-37
2023/05/06 02:23:22;;;;;;;;;;;13.50;63.40;;;;;;5039214;28;82359;-38
2023/05/06 02:25:49;;;;;;;;;;;13.50;63.30;;;;;;5038865;28;82062;-36
2023/05/06 02:28:14;;;;;;;;;;;13.50;63.30;;;;;;5038359;28;82527;-37
2023/05/06 02:30:40;;;;;;;;;;;13.50;63.30;;;;;;5037468;28;82912;-39
2023/05/06 02:33:05;;;;;;;;;;;13.50;63.40;;;;;;5038678;28;82213;-39
2023/05/06 02:35:31;;;;;;;;;;;13.40;63.30;;;;;;5035843;28;82900;-37
2023/05/06 02:37:56;;;;;;;;;;;13.40;63.30;;;;;;5038952;28;83105;-38
2023/05/06 02:40:22;;;;;;;;;;;13.40;63.30;;;;;;5036487;28;82302;-38
2023/05/06 02:42:47;;;;;;;;;;;13.40;63.40;;;;;;5038063;27;83743;-38
2023/05/06 02:45:13;;;;;;;;;;;13.40;63.40;;;;;;5040158;28;83069;-37
2023/05/06 02:47:38;;;;;;;;;;;13.40;63.50;;;;;;5036648;28;82409;-39
2023/05/06 02:50:04;;;;;;;;;;;13.40;63.50;;;;;;5038931;28;82134;-38
2023/05/06 02:52:31;;;;;;;;;;;13.40;63.40;;;;;;5036630;28;81456;-39
2023/05/06 02:54:56;;;;;;;;;;;13.40;63.50;;;;;;5038484;28;83415;-39
2023/05/06 02:57:22;;;;;;;;;;;13.30;63.40;;;;;;5033976;28;82967;-37
2023/05/06 02:59:47;;;;;;;;;;;13.40;63.40;;;;;;5036564;28;83027;-39
2023/05/06 03:02:13;;;;;;;;;;;13.40;63.30;;;;;;5036835;28;83377;-39
2023/05/06 03:04:38;;;;;;;;;;;13.30;63.30;;;;;;5038023;28;82944;-39
2023/05/06 03:07:04;;;;;;;;;;;13.30;63.40;;;;;;5038459;28;82082;-39
2023/05/06 03:09:29;;;;;;;;;;;13.30;63.40;;;;;;5035468;28;82629;-39
2023/05/06 03:11:55;;;;;;;;;;;13.30;63.40;;;;;;5038323;28;81961;-38
2023/05/06 03:14:20;;;;;;;;;;;13.20;63.30;;;;;;5036758;28;82036;-37
2023/05/06 03:16:46;;;;;;;;;;;13.30;63.40;;;;;;5039892;28;81364;-40
2023/05/06 03:19:11;;;;;;;;;;;13.30;63.50;;;;;;5035857;28;82061;-39
2023/05/06 03:21:37;;;;;;;;;;;13.20;63.30;;;;;;5038843;28;82503;-47
2023/05/06 03:24:03;;;;;;;;;;;13.20;63.40;;;;;;5037945;28;85056;-44
2023/05/06 03:26:28;;;;;;;;;;;13.20;63.40;;;;;;5035530;28;82343;-37
2023/05/06 03:28:54;;;;;;;;;;;13.20;63.50;;;;;;5039970;28;82548;-39
2023/05/06 03:31:19;;;;;;;;;;;13.20;63.50;;;;;;5036806;28;82083;-38
2023/05/06 03:33:45;;;;;;;;;;;13.20;63.50;;;;;;5036004;28;83688;-38
2023/05/06 03:36:12;;;;;;;;;;;13.20;63.40;;;;;;5037641;28;83213;-39
2023/05/06 03:38:39;;;;;;;;;;;13.20;63.50;;;;;;5035101;28;82115;-37
2023/05/06 03:41:04;;;;;;;;;;;13.20;63.50;;;;;;5038536;28;82761;-38
2023/05/06 03:43:30;;;;;;;;;;;13.20;63.50;;;;;;5036225;28;82906;-37
2023/05/06 03:45:55;;;;;;;;;;;13.20;63.60;;;;;;5036648;28;82026;-36
2023/05/06 03:48:21;;;;;;;;;;;13.10;63.40;;;;;;5038313;28;82976;-37
2023/05/06 03:50:46;;;;;;;;;;;13.10;63.50;;;;;;5035147;28;82115;-39
2023/05/06 03:53:12;;;;;;;;;;;13.10;63.50;;;;;;5038638;28;82404;-37
2023/05/06 03:55:37;;;;;;;;;;;13.10;63.50;;;;;;5037878;28;82904;-39
2023/05/06 03:58:03;;;;;;;;;;;13.10;63.50;;;;;;5035771;28;82000;-38
2023/05/06 04:00:28;;;;;;;;;;;13.10;63.50;;;;;;5036231;28;83872;-37
2023/05/06 04:02:54;;;;;;;;;;;13.00;63.50;;;;;;5036593;28;82942;-39
2023/05/06 04:05:19;;;;;;;;;;;13.10;63.50;;;;;;5035298;28;81774;-37
2023/05/06 04:07:45;;;;;;;;;;;13.10;63.60;;;;;;5037939;28;82074;-38
2023/05/06 04:10:10;;;;;;;;;;;13.00;63.50;;;;;;5033356;28;83171;-39
2023/05/06 04:12:36;;;;;;;;;;;13.00;63.50;;;;;;5036802;28;83309;-37
2023/05/06 04:15:01;;;;;;;;;;;13.00;63.60;;;;;;5035621;28;82949;-37
2023/05/06 04:17:27;;;;;;;;;;;13.00;63.50;;;;;;5035999;28;82088;-39
2023/05/06 04:19:52;;;;;;;;;;;13.00;63.70;;;;;;5036812;28;82284;-37
2023/05/06 04:22:18;;;;;;;;;;;13.00;63.50;;;;;;5034606;28;83019;-39
2023/05/06 04:24:44;;;;;;;;;;;13.00;63.60;;;;;;5037652;28;83722;-36
2023/05/06 04:27:10;;;;;;;;;;;13.00;63.60;;;;;;5034989;28;84081;-38
2023/05/06 04:29:36;;;;;;;;;;;13.00;63.60;;;;;;5037151;28;81479;-38
2023/05/06 04:32:01;;;;;;;;;;;13.00;63.70;;;;;;5038698;28;82076;-37
2023/05/06 04:34:27;;;;;;;;;;;12.90;63.70;;;;;;5035048;27;82550;-37
2023/05/06 04:36:53;;;;;;;;;;;13.00;63.70;;;;;;5036457;28;83431;-37
2023/05/06 04:39:19;;;;;;;;;;;13.00;63.70;;;;;;5037517;27;84662;-38
2023/05/06 04:41:44;;;;;;;;;;;13.00;63.70;;;;;;5033730;28;83080;-37
2023/05/06 04:44:10;;;;;;;;;;;13.00;63.60;;;;;;5035124;28;82039;-39
2023/05/06 04:46:36;;;;;;;;;;;12.90;63.70;;;;;;5035997;27;82347;-38
2023/05/06 04:49:01;;;;;;;;;;;13.00;63.70;;;;;;5035842;28;84850;-38
2023/05/06 04:51:27;;;;;;;;;;;12.90;63.70;;;;;;5034705;28;82115;-39
2023/05/06 04:53:52;;;;;;;;;;;13.00;63.70;;;;;;5040373;28;82505;-38
2023/05/06 04:56:18;;;;;;;;;;;13.00;63.80;;;;;;5038183;28;82005;-37
2023/05/06 04:58:43;;;;;;;;;;;13.00;63.90;;;;;;5036815;28;82644;-39
2023/05/06 05:01:10;;;;;;;;;;;12.90;63.90;;;;;;5034233;28;83609;-38
2023/05/06 05:03:35;;;;;;;;;;;13.00;64.10;;;;;;5033194;28;82069;-38
2023/05/06 05:06:01;;;;;;;;;;;13.00;64.10;;;;;;5033895;28;82466;-39
2023/05/06 05:08:26;;;;;;;;;;;13.00;64.10;;;;;;5033446;28;83451;-37
2023/05/06 05:10:52;;;;;;;;;;;12.90;64.20;;;;;;5033921;28;82059;-38
2023/05/06 05:13:18;;;;;;;;;;;12.90;64.20;;;;;;5036849;28;82029;-37
2023/05/06 05:15:43;;;;;;;;;;;12.90;64.20;;;;;;5037413;28;83278;-39
2023/05/06 05:18:09;;;;;;;;;;;12.90;64.30;;;;;;5037611;28;82937;-38
2023/05/06 05:20:34;;;;;;;;;;;12.90;64.40;;;;;;5034660;28;82186;-37
2023/05/06 05:23:00;;;;;;;;;;;12.90;64.50;;;;;;5036798;28;82057;-38
2023/05/06 05:25:25;;;;;;;;;;;12.90;64.50;;;;;;5032616;27;83078;-38
2023/05/06 05:27:51;;;;;;;;;;;12.90;64.40;;;;;;5036127;28;84298;-37
2023/05/06 05:30:16;;;;;;;;;;;12.90;64.60;;;;;;5034603;28;82081;-39
2023/05/06 05:32:42;;;;;;;;;;;12.90;64.50;;;;;;5035588;27;82222;-37
2023/05/06 05:35:11;;;;;;;;;;;12.90;64.60;;;;;;5035418;28;82971;-37
2023/05/06 05:37:36;;;;;;;;;;;13.00;64.60;;;;;;5036294;28;82061;-37
2023/05/06 05:40:03;;;;;;;;;;;12.90;64.50;;;;;;5036630;28;82703;-38
2023/05/06 05:42:32;;;;;;;;;;;12.90;64.50;;;;;;5034704;28;81261;-39
2023/05/06 05:44:58;;;;;;;;;;;12.90;64.60;;;;;;5034449;27;82172;-38
2023/05/06 05:47:23;;;;;;;;;;;12.90;64.70;;;;;;5035278;28;83368;-39
2023/05/06 05:49:49;;;;;;;;;;;12.90;64.70;;;;;;5032551;28;82884;-39
2023/05/06 05:52:14;;;;;;;;;;;13.00;64.80;;;;;;5036217;28;83740;-38
2023/05/06 05:54:40;;;;;;;;;;;12.90;64.80;;;;;;5032978;28;84175;-38
2023/05/06 05:57:06;;;;;;;;;;;13.00;64.90;;;;;;5038079;28;82010;-38
2023/05/06 05:59:31;;;;;;;;;;;13.00;64.90;;;;;;5034668;28;82987;-38
2023/05/06 06:01:57;;;;;;;;;;;13.00;65.00;;;;;;5034117;28;82358;-39
2023/05/06 06:04:23;;;;;;;;;;;12.90;65.10;;;;;;5035576;28;81960;-38
2023/05/06 06:06:48;;;;;;;;;;;13.00;65.10;;;;;;5033474;28;82171;-39
2023/05/06 06:09:15;;;;;;;;;;;13.00;64.90;;;;;;5036543;28;81969;-37
2023/05/06 06:11:41;;;;;;;;;;;13.00;64.90;;;;;;5034377;27;83968;-37
2023/05/06 06:14:06;;;;;;;;;;;13.00;65.10;;;;;;5036731;28;83924;-37
2023/05/06 06:16:32;;;;;;;;;;;12.90;66.00;;;;;;5038373;28;82529;-37
2023/05/06 06:18:57;;;;;;;;;;;12.90;65.60;;;;;;5038630;28;84226;-37
2023/05/06 06:21:23;;;;;;;;;;;12.90;65.80;;;;;;5038765;28;82040;-38
2023/05/06 06:23:48;;;;;;;;;;;12.90;65.60;;;;;;5036094;28;82410;-38
2023/05/06 06:26:14;;;;;;;;;;;12.90;65.70;;;;;;5038480;28;83030;-38
2023/05/06 06:28:40;;;;;;;;;;;12.90;65.50;;;;;;5037546;28;82129;-38
2023/05/06 06:31:06;;;;;;;;;;;12.90;65.50;;;;;;5037888;27;83926;-38
2023/05/06 06:33:31;;;;;;;;;;;13.00;65.50;;;;;;5038386;28;83040;-38
2023/05/06 06:35:57;;;;;;;;;;;12.90;65.40;;;;;;5035524;28;82308;-38
2023/05/06 06:38:22;;;;;;;;;;;13.00;65.50;;;;;;5038695;28;83198;-37
2023/05/06 06:40:48;;;;;;;;;;;13.00;66.10;;;;;;5038460;28;84504;-39
2023/05/06 06:43:13;;;;;;;;;;;13.00;65.50;;;;;;5038132;28;82858;-38
2023/05/06 06:45:39;;;;;;;;;;;13.00;65.50;;;;;;5037274;28;82801;-39
2023/05/06 06:48:05;;;;;;;;;;;13.00;65.60;;;;;;5036357;28;81963;-39
2023/05/06 06:50:30;;;;;;;;;;;12.90;65.60;;;;;;5037787;28;82322;-37
2023/05/06 06:52:56;;;;;;;;;;;12.90;65.90;;;;;;5034797;28;82967;-38
2023/05/06 06:55:21;;;;;;;;;;;13.00;66.00;;;;;;5039098;28;81361;-38
2023/05/06 06:57:46;;;;;;;;;;;12.90;66.00;;;;;;5035869;28;81844;-36
2023/05/06 07:00:12;;;;;;;;;;;12.90;66.10;;;;;;5036683;28;82811;-37
2023/05/06 07:02:38;;;;;;;;;;;12.90;66.20;;;;;;5038766;28;82971;-38
2023/05/06 07:05:03;;;;;;;;;;;12.90;66.00;;;;;;5034870;28;83122;-37
2023/05/06 07:07:29;;;;;;;;;;;13.00;66.30;;;;;;5037961;28;82024;-38
2023/05/06 07:09:55;;;;;;;;;;;13.00;66.20;;;;;;5031214;28;81971;-38
2023/05/06 07:12:22;;;;;;;;;;;13.00;66.20;;;;;;5037200;28;82191;-36
2023/05/06 07:14:48;;;;;;;;;;;13.00;66.30;;;;;;5036202;28;82052;-36
2023/05/06 07:17:13;;;;;;;;;;;13.00;66.10;;;;;;5036460;28;82574;-36
2023/05/06 07:19:39;;;;;;;;;;;13.10;66.10;;;;;;5038567;28;82392;-38
2023/05/06 07:22:04;;;;;;;;;;;13.10;66.10;;;;;;5035377;28;82066;-37
2023/05/06 07:24:30;;;;;;;;;;;13.10;66.10;;;;;;5033972;28;82710;-37
2023/05/06 07:26:56;;;;;;;;;;;13.00;66.20;;;;;;5036665;28;83083;-38
2023/05/06 07:29:22;;;;;;;;;;;13.00;66.10;;;;;;5035976;28;84128;-37
2023/05/06 07:31:47;;;;;;;;;;;13.10;66.20;;;;;;5035806;28;83592;-38
2023/05/06 07:34:13;;;;;;;;;;;13.10;66.10;;;;;;5037488;28;82090;-38
2023/05/06 07:36:42;;;;;;;;;;;13.10;66.00;;;;;;5034415;28;82422;-38
2023/05/06 07:39:08;;;;;;;;;;;13.10;65.90;;;;;;5030920;28;84524;-38
2023/05/06 07:41:33;;;;;;;;;;;13.20;65.80;;;;;;5036882;28;82116;-37
2023/05/06 07:43:59;;;;;;;;;;;13.20;66.00;;;;;;5038667;28;83891;-38
2023/05/06 07:46:24;;;;;;;;;;;13.20;65.80;;;;;;5035496;28;82130;-37
2023/05/06 07:48:50;;;;;;;;;;;13.20;66.00;;;;;;5037460;28;82753;-39
2023/05/06 07:51:16;;;;;;;;;;;13.20;65.90;;;;;;5033774;28;83982;-37
2023/05/06 07:53:42;;;;;;;;;;;13.20;66.10;;;;;;5037852;28;82620;-37
2023/05/06 07:56:07;;;;;;;;;;;13.10;66.90;;;;;;5035309;28;82461;-38
2023/05/06 07:58:33;;;;;;;;;;;13.10;66.50;;;;;;5035577;28;82954;-38
2023/05/06 08:00:58;;;;;;;;;;;13.10;66.90;;;;;;5035662;28;83158;-38
2023/05/06 08:03:24;;;;;;;;;;;13.10;66.90;;;;;;5033197;27;83005;-38
2023/05/06 08:05:50;;;;;;;;;;;13.10;67.10;;;;;;5039166;28;82112;-38
2023/05/06 08:08:16;;;;;;;;;;;13.10;66.90;;;;;;5030972;28;83896;-38
2023/05/06 08:10:42;;;;;;;;;;;13.10;67.20;;;;;;5036980;28;82184;-39
2023/05/06 08:13:08;;;;;;;;;;;13.10;67.30;;;;;;5035059;28;82018;-39
2023/05/06 08:15:33;;;;;;;;;;;13.10;67.30;;;;;;5034830;28;82825;-38
2023/05/06 08:17:58;;;;;;;;;;;13.10;67.40;;;;;;5035886;28;83094;-37
2023/05/06 08:20:24;;;;;;;;;;;13.20;67.40;;;;;;5033330;28;81906;-38
2023/05/06 08:22:50;;;;;;;;;;;13.20;67.10;;;;;;5036484;28;81986;-37
2023/05/06 08:25:15;;;;;;;;;;;13.20;67.40;;;;;;5033014;28;82543;-37
2023/05/06 08:27:41;;;;;;;;;;;13.20;67.30;;;;;;5037716;28;82063;-37
2023/05/06 08:30:07;;;;;;;;;;;13.20;67.30;;;;;;5034435;28;83015;-37
2023/05/06 08:32:32;;;;;;;;;;;13.20;67.40;;;;;;5034020;28;81321;-38
2023/05/06 08:34:59;;;;;;;;;;;13.20;67.00;;;;;;5035541;27;81958;-37
2023/05/06 08:37:24;;;;;;;;;;;13.30;67.60;;;;;;5032331;28;83020;-38
2023/05/06 08:39:50;;;;;;;;;;;13.30;67.60;;;;;;5035242;28;83029;-38
2023/05/06 08:42:16;;;;;;;;;;;13.30;67.50;;;;;;5033639;28;82372;-36
2023/05/06 08:44:42;;;;;;;;;;;13.30;67.50;;;;;;5037056;28;82082;-38
2023/05/06 08:47:08;;;;;;;;;;;13.30;67.60;;;;;;5033671;28;82074;-36
2023/05/06 08:49:33;;;;;;;;;;;13.30;67.80;;;;;;5038236;28;82561;-36
2023/05/06 08:52:02;;;;;;;;;;;13.30;67.90;;;;;;5032593;28;82008;-37
2023/05/06 08:54:28;;;;;;;;;;;13.30;67.70;;;;;;5034954;28;83768;-38
2023/05/06 08:56:56;;;;;;;;;;;13.30;67.80;;;;;;5034631;28;82059;-37
2023/05/06 08:59:25;;;;;;;;;;;13.30;67.80;;;;;;5033369;28;82072;-39
2023/05/06 09:01:52;;;;;;;;;;;13.40;67.70;;;;;;5035961;28;82435;-37
2023/05/06 09:04:18;;;;;;;;;;;13.40;67.80;;;;;;5030859;28;85162;-37
2023/05/06 09:06:43;;;;;;;;;;;13.40;67.90;;;;;;5034293;27;82009;-40
2023/05/06 09:09:09;;;;;;;;;;;13.40;67.90;;;;;;5030021;28;82780;-42
2023/05/06 09:11:37;;;;;;;;;;;13.30;69.40;;;;;;5035877;28;82126;-39
2023/05/06 09:14:10;;;;;;;;;;;13.30;69.10;;;;;;5035359;28;82663;-42
2023/05/06 09:16:35;;;;;;;;;;;13.30;68.60;;;;;;5029664;28;82955;-47
2023/05/06 09:19:01;;;;;;;;;;;13.20;68.50;;;;;;5034574;28;82521;-42
2023/05/06 09:21:34;;;;;;;;;;;13.40;69.00;;;;;;5036754;28;82338;-42
2023/05/06 09:24:00;;;;;;;;;;;13.40;69.20;;;;;;5035361;28;84282;-41
2023/05/06 09:26:27;;;;;;;;;;;13.50;68.30;;;;;;5033056;28;82036;-41
2023/05/06 09:28:53;;;;;;;;;;;13.60;68.80;;;;;;5033608;27;82886;-41
2023/05/06 09:31:19;;;;;;;;;;;13.60;68.60;;;;;;5033460;28;84301;-45
2023/05/06 09:33:44;;;;;;;;;;;13.70;67.90;;;;;;5035481;28;82172;-41
2023/05/06 09:36:12;;;;;;;;;;;13.70;67.80;;;;;;5035139;28;83091;-40
2023/05/06 09:38:39;;;;;;;;;;;13.70;67.80;;;;;;5028825;28;82196;-43
2023/05/06 09:41:05;;;;;;;;;;;13.70;67.90;;;;;;5035332;28;82058;-41
2023/05/06 09:43:31;;;;;;;;;;;13.70;67.60;;;;;;5033362;28;82047;-43
2023/05/06 09:45:56;;;;;;;;;;;13.80;67.40;;;;;;5034663;27;81378;-45
2023/05/06 09:48:22;;;;;;;;;;;13.80;67.20;;;;;;5039390;28;81856;-44
2023/05/06 09:50:48;;;;;;;;;;;13.90;67.00;;;;;;5036631;28;82974;-42
2023/05/06 09:53:16;;;;;;;;;;;13.90;66.10;;;;;;5041672;28;83036;-40
2023/05/06 09:55:42;;;;;;;;;;;13.90;66.50;;;;;;5038031;28;82963;-43
2023/05/06 09:58:09;;;;;;;;;;;13.90;66.60;;;;;;5038175;28;81941;-44
2023/05/06 10:00:35;;;;;;;;;;;13.90;67.20;;;;;;5039561;28;82492;-43
2023/05/06 10:03:01;;;;;;;;;;;13.90;66.60;;;;;;5036570;28;83133;-42
2023/05/06 10:05:27;;;;;;;;;;;14.10;66.30;;;;;;5039352;28;82038;-43
2023/05/06 10:07:53;;;;;;;;;;;14.10;66.20;;;;;;5037774;28;82342;-44
2023/05/06 10:10:19;;;;;;;;;;;13.90;65.10;;;;;;5038772;28;81844;-40
2023/05/06 10:12:45;;;;;;;;;;;13.90;65.70;;;;;;5038686;28;82751;-40
2023/05/06 10:15:10;;;;;;;;;;;13.80;64.30;;;;;;5039262;27;83976;-44
2023/05/06 10:17:37;;;;;;;;;;;13.80;64.50;;;;;;5039219;28;83026;-43
2023/05/06 10:20:06;;;;;;;;;;;13.80;65.30;;;;;;5036819;28;83442;-43
2023/05/06 10:22:48;;;;;;;;;;;13.90;65.30;;;;;;5038079;28;84268;-42
2023/05/06 10:25:15;;;;;;;;;;;14.10;64.80;;;;;;5032942;28;82495;-42
2023/05/06 10:27:43;;;;;;;;;;;14.10;64.90;;;;;;5038129;27;83070;-40
2023/05/06 10:30:09;;;;;;;;;;;14.10;64.90;;;;;;5038177;28;82090;-44
2023/05/06 10:32:37;;;;;;;;;;;14.10;64.90;;;;;;5036365;28;82094;-45
2023/05/06 10:35:09;;;;;;;;;;;14.20;64.90;;;;;;5039937;28;82321;-44
2023/05/06 10:37:36;;;;;;;;;;;14.20;64.90;;;;;;5039690;28;84331;-42
2023/05/06 10:40:03;;;;;;;;;;;14.20;64.70;;;;;;5037455;28;82990;-43
2023/05/06 10:42:32;;;;;;;;;;;14.20;64.70;;;;;;5038198;28;83092;-43
2023/05/06 10:44:58;;;;;;;;;;;14.30;64.50;;;;;;5032329;28;81966;-43
2023/05/06 10:47:24;;;;;;;;;;;14.30;64.70;;;;;;5038656;27;82439;-40
2023/05/06 10:50:08;;;;;;;;;;;14.30;64.70;;;;;;5037155;28;82863;-44
2023/05/06 10:52:43;;;;;;;;;;;14.30;64.70;;;;;;5033660;28;82143;-43
2023/05/06 10:55:27;;;;;;;;;;;14.30;64.70;;;;;;5036838;27;82410;-43
2023/05/06 10:57:55;;;;;;;;;;;14.40;64.70;;;;;;5035219;28;84290;-41
2023/05/06 11:00:21;;;;;;;;;;;14.40;64.80;;;;;;5039351;28;81140;-44
2023/05/06 11:02:53;;;;;;;;;;;14.40;64.90;;;;;;5038752;28;83083;-41
2023/05/06 11:05:19;;;;;;;;;;;14.40;65.00;;;;;;5035893;28;82827;-43
2023/05/06 11:07:44;;;;;;;;;;;14.40;65.00;;;;;;5036618;27;82990;-50
2023/05/06 11:10:10;;;;;;;;;;;14.40;64.90;;;;;;5036428;28;83961;-41
2023/05/06 11:12:43;;;;;;;;;;;14.30;65.80;;;;;;5033936;28;82105;-38
2023/05/06 11:15:18;;;;;;;;;;;14.30;66.60;;;;;;5028242;28;84313;-39
2023/05/06 11:17:44;;;;;;;;;;;14.30;67.10;;;;;;5035599;28;83675;-41
2023/05/06 11:20:25;;;;;;;;;;;14.40;67.40;;;;;;5037857;28;82146;-40
2023/05/06 11:22:51;;;;;;;;;;;14.40;67.50;;;;;;5037597;28;81989;-41
2023/05/06 11:25:35;;;;;;;;;;;14.50;67.00;;;;;;5035114;28;81402;-40
2023/05/06 11:28:05;;;;;;;;;;;14.50;66.90;;;;;;5035108;28;81923;-39
2023/05/06 11:30:31;;;;;;;;;;;14.40;67.00;;;;;;5034476;28;81975;-37
2023/05/06 11:32:58;;;;;;;;;;;14.50;66.70;;;;;;5029682;28;84165;-40
2023/05/06 11:35:25;;;;;;;;;;;14.60;66.30;;;;;;5036229;28;84477;-39
2023/05/06 11:37:51;;;;;;;;;;;14.70;65.90;;;;;;5035225;28;84433;-41
2023/05/06 11:40:16;;;;;;;;;;;14.70;66.50;;;;;;5035669;28;81980;-39
2023/05/06 11:42:42;;;;;;;;;;;14.70;65.50;;;;;;5037695;28;82294;-40
2023/05/06 11:45:07;;;;;;;;;;;14.70;65.40;;;;;;5036518;28;82940;-40
2023/05/06 11:47:33;;;;;;;;;;;14.70;65.30;;;;;;5037249;28;82486;-42
2023/05/06 11:50:05;;;;;;;;;;;14.70;65.20;;;;;;5034718;28;83201;-37
2023/05/06 11:52:30;;;;;;;;;;;14.70;64.80;;;;;;5035240;28;82033;-40
2023/05/06 11:54:56;;;;;;;;;;;14.70;64.70;;;;;;5037074;28;82358;-39
2023/05/06 11:57:21;;;;;;;;;;;14.80;64.50;;;;;;5032783;28;83942;-39
2023/05/06 11:59:52;;;;;;;;;;;14.80;64.70;;;;;;5037682;28;82059;-38
2023/05/06 12:02:17;;;;;;;;;;;14.80;64.40;;;;;;5035630;28;84011;-38
2023/05/06 12:04:44;;;;;;;;;;;14.80;64.50;;;;;;5035503;28;84698;-39
2023/05/06 12:07:10;;;;;;;;;;;14.80;64.30;;;;;;5036504;28;82397;-39
2023/05/06 12:09:37;;;;;;;;;;;14.80;64.30;;;;;;5032473;27;82986;-38
2023/05/06 12:12:03;;;;;;;;;;;14.90;59.00;;;;;;5037151;27;82036;-38
2023/05/06 12:14:29;;;;;;;;;;;14.80;61.40;;;;;;5035863;28;82416;-42
2023/05/06 12:16:55;;;;;;;;;;;14.80;62.50;;;;;;5036013;28;83186;-44
2023/05/06 12:19:21;;;;;;;;;;;14.70;62.80;;;;;;5037134;28;82162;-42
2023/05/06 12:21:46;;;;;;;;;;;14.80;63.50;;;;;;5034272;27;82899;-37
2023/05/06 12:24:12;;;;;;;;;;;14.80;63.10;;;;;;5037067;28;82923;-41
2023/05/06 12:26:47;;;;;;;;;;;14.80;62.90;;;;;;5036855;28;82281;-38
2023/05/06 12:29:16;;;;;;;;;;;14.90;63.00;;;;;;5033951;28;82721;-41
2023/05/06 12:31:43;;;;;;;;;;;15.00;62.50;;;;;;5037047;28;82611;-39
2023/05/06 12:34:09;;;;;;;;;;;15.00;62.60;;;;;;5034317;28;82699;-38
2023/05/06 12:36:38;;;;;;;;;;;15.00;62.70;;;;;;5035232;28;83519;-41
2023/05/06 12:39:04;;;;;;;;;;;15.10;63.00;;;;;;5035826;28;81939;-41
2023/05/06 12:41:43;;;;;;;;;;;15.10;63.00;;;;;;5034097;27;82011;-41
2023/05/06 12:44:27;;;;;;;;;;;15.10;62.50;;;;;;5032170;28;82342;-39
2023/05/06 12:46:53;;;;;;;;;;;15.10;62.80;;;;;;5029383;28;83173;-43
2023/05/06 12:49:18;;;;;;;;;;;15.10;62.50;;;;;;5037328;28;83584;-41
2023/05/06 12:51:44;;;;;;;;;;;15.20;62.80;;;;;;5035210;28;81996;-41
2023/05/06 12:54:28;;;;;;;;;;;15.20;62.70;;;;;;5033214;27;83813;-37
2023/05/06 12:56:54;;;;;;;;;;;15.20;62.60;;;;;;5032222;28;83670;-40
2023/05/06 12:59:19;;;;;;;;;;;15.20;62.00;;;;;;5033894;28;82107;-38
2023/05/06 13:01:45;;;;;;;;;;;15.10;59.80;;;;;;5035602;28;83766;-37
2023/05/06 13:04:10;;;;;;;;;;;15.10;61.00;;;;;;5032880;28;82240;-38
2023/05/06 13:06:36;;;;;;;;;;;15.20;60.70;;;;;;5035347;28;82188;-39
2023/05/06 13:09:01;;;;;;;;;;;15.20;60.10;;;;;;5033230;28;82403;-38
2023/05/06 13:11:27;;;;;;;;;;;15.20;59.40;;;;;;5036594;28;84205;-39
2023/05/06 13:13:52;;;;;;;;;;;15.40;60.00;;;;;;5034348;28;83211;-39
2023/05/06 13:16:18;;;;;;;;;;;15.40;58.90;;;;;;5032953;28;82953;-39
2023/05/06 13:18:43;;;;;;;;;;;15.60;58.30;;;;;;5035501;28;82027;-40
2023/05/06 13:21:09;;;;;;;;;;;15.60;58.70;;;;;;5033900;27;82652;-41
2023/05/06 13:23:36;;;;;;;;;;;15.60;58.80;;;;;;5038796;28;84229;-38
2023/05/06 13:26:04;;;;;;;;;;;15.70;57.90;;;;;;5037260;28;82096;-38
2023/05/06 13:28:30;;;;;;;;;;;15.70;58.30;;;;;;5037834;28;83001;-45
2023/05/06 13:30:56;;;;;;;;;;;15.80;59.10;;;;;;5039148;28;83027;-48
2023/05/06 13:33:22;;;;;;;;;;;15.80;59.80;;;;;;5038918;28;82190;-40
2023/05/06 13:35:47;;;;;;;;;;;15.80;59.60;;;;;;5037723;28;83138;-39
2023/05/06 13:38:13;;;;;;;;;;;15.70;59.60;;;;;;5036573;28;82048;-38
2023/05/06 13:40:38;;;;;;;;;;;15.80;60.10;;;;;;5038462;28;82268;-35
2023/05/06 13:43:04;;;;;;;;;;;15.80;59.70;;;;;;5039016;28;82924;-39
2023/05/06 13:45:31;;;;;;;;;;;15.70;60.20;;;;;;5037567;28;81995;-38
2023/05/06 13:47:57;;;;;;;;;;;15.70;60.90;;;;;;5040525;28;82029;-38
2023/05/06 13:50:22;;;;;;;;;;;15.70;61.20;;;;;;5036841;28;83061;-37
2023/05/06 13:52:48;;;;;;;;;;;15.70;61.50;;;;;;5039509;28;81289;-37
2023/05/06 13:55:13;;;;;;;;;;;15.70;61.60;;;;;;5040994;28;82137;-39
2023/05/06 13:57:39;;;;;;;;;;;15.70;61.90;;;;;;5038047;28;82030;-37
2023/05/06 14:00:06;;;;;;;;;;;15.70;61.70;;;;;;5038446;28;84270;-36
2023/05/06 14:02:31;;;;;;;;;;;15.70;60.90;;;;;;5036234;28;84438;-37
2023/05/06 14:04:57;;;;;;;;;;;15.80;61.30;;;;;;5038896;28;82028;-35
2023/05/06 14:07:23;;;;;;;;;;;15.80;61.30;;;;;;5037678;28;81854;-38
2023/05/06 14:09:48;;;;;;;;;;;15.90;61.00;;;;;;5038355;28;83094;-38
2023/05/06 14:12:15;;;;;;;;;;;15.90;60.60;;;;;;5038774;28;81979;-39